createdAt,value
2023-03-13T00:08:54.933Z,54.38
2023-03-13T00:18:58.328Z,54.63
2023-03-13T00:29:00.642Z,56.27
2023-03-13T00:39:04.836Z,56.64
2023-03-13T00:49:07.228Z,57.14
2023-03-13T00:59:09.406Z,59.85
2023-03-13T01:09:14.262Z,62.34
2023-03-13T01:19:17.579Z,65.28
2023-03-13T01:29:20.862Z,64.94
2023-03-13T01:39:23.722Z,65.71
2023-03-13T01:49:33.373Z,68.30
2023-03-13T01:59:47.561Z,68.08
2023-03-13T02:09:52.115Z,70.69
2023-03-13T02:19:54.513Z,73.57
2023-03-13T02:29:57.841Z,72.67
2023-03-13T02:40:04.669Z,74.84
2023-03-13T02:50:07.705Z,75.30
2023-03-13T03:00:13.006Z,74.94
2023-03-13T03:10:16.995Z,75.17
2023-03-13T03:20:19.185Z,75.85
2023-03-13T03:30:22.403Z,76.67
2023-03-13T03:40:27.080Z,75.92
2023-03-13T03:50:29.552Z,76.60
2023-03-13T04:00:35.777Z,74.32
2023-03-13T04:10:38.158Z,75.03
2023-03-13T04:20:40.748Z,74.80
2023-03-13T04:30:43.534Z,74.76
2023-03-13T04:40:56.555Z,76.81
2023-03-13T04:51:22.247Z,77.00
2023-03-13T05:01:44.725Z,77.72
2023-03-13T05:12:00.601Z,75.54
2023-03-13T05:22:25.857Z,75.81
2023-03-13T05:32:52.143Z,72.26
2023-03-13T05:43:14.138Z,73.14
2023-03-13T05:53:23.296Z,73.09
2023-03-13T06:03:46.859Z,75.50
2023-03-13T06:13:53.856Z,74.18
2023-03-13T06:24:22.782Z,71.72
2023-03-13T06:34:25.086Z,72.33
2023-03-13T06:44:27.514Z,71.98
2023-03-13T06:54:30.002Z,71.04
2023-03-13T07:04:32.061Z,68.11
2023-03-13T07:14:34.478Z,68.56
2023-03-13T07:24:36.614Z,69.28
2023-03-13T07:34:38.971Z,66.14
2023-03-13T07:44:41.353Z,65.51
2023-03-13T07:54:43.722Z,63.50
2023-03-13T08:04:46.077Z,62.98
2023-03-13T08:14:48.166Z,62.19
2023-03-13T08:24:50.566Z,61.84
2023-03-13T08:34:52.743Z,60.65
2023-03-13T08:44:55.023Z,60.46
2023-03-13T08:54:57.323Z,60.89
2023-03-13T09:04:59.448Z,62.23
2023-03-13T09:15:01.560Z,63.63
2023-03-13T09:25:03.996Z,61.84
2023-03-13T09:35:06.473Z,61.00
2023-03-13T09:45:33.967Z,60.81
2023-03-13T09:55:37.097Z,63.42
2023-03-13T10:05:51.963Z,63.34
2023-03-13T10:15:57.195Z,61.09
2023-03-13T10:25:59.636Z,61.55
2023-03-13T10:36:03.882Z,59.32
2023-03-13T10:46:06.460Z,56.48
2023-03-13T10:56:12.799Z,55.27
2023-03-13T11:06:32.565Z,56.16
2023-03-13T11:16:41.247Z,54.17
2023-03-13T11:27:04.167Z,52.89
2023-03-13T11:37:12.942Z,52.62
2023-03-13T11:47:41.264Z,53.17
2023-03-13T11:58:19.849Z,51.58
2023-03-13T12:08:36.611Z,50.30
2023-03-13T12:18:41.132Z,50.29
2023-03-13T12:28:47.870Z,49.16
2023-03-13T12:38:59.629Z,48.05
2023-03-13T12:49:22.336Z,47.33
2023-03-13T12:59:34.858Z,48.89
2023-03-13T13:09:40.085Z,46.93
2023-03-13T13:19:42.383Z,46.16
2023-03-13T13:29:44.699Z,45.56
2023-03-13T13:39:50.398Z,48.35
2023-03-13T13:49:57.118Z,47.71
2023-03-13T14:00:22.043Z,47.99
2023-03-13T14:10:47.100Z,45.99
2023-03-13T14:20:54.111Z,46.98
2023-03-13T14:30:57.838Z,46.65
2023-03-13T14:41:00.076Z,47.23
2023-03-13T14:51:15.488Z,47.45
2023-03-13T15:01:25.949Z,47.95
2023-03-13T15:11:30.645Z,46.31
2023-03-13T15:21:34.132Z,48.04
2023-03-13T15:31:36.865Z,48.04
2023-03-13T15:41:39.135Z,48.79
2023-03-13T15:51:42.342Z,45.68
2023-03-13T16:01:45.325Z,45.37
2023-03-13T16:11:47.699Z,44.66
2023-03-13T16:21:50.549Z,44.39
2023-03-13T16:31:52.712Z,43.75
2023-03-13T16:41:56.098Z,45.84
2023-03-13T16:51:58.338Z,45.45
2023-03-13T17:02:00.587Z,46.89
2023-03-13T17:12:03.989Z,45.12
2023-03-13T17:22:06.488Z,45.06
2023-03-13T17:32:13.562Z,45.66
2023-03-13T17:42:17.404Z,48.34
2023-03-13T17:52:19.681Z,48.39
2023-03-13T18:02:23.051Z,48.12
2023-03-13T18:12:25.530Z,46.95
2023-03-13T18:22:28.025Z,47.49
2023-03-13T18:32:30.261Z,46.07
2023-03-13T18:42:34.912Z,47.56
2023-03-13T18:52:37.231Z,47.97
2023-03-13T19:02:39.322Z,51.03
2023-03-13T19:12:41.489Z,51.16
2023-03-13T19:22:43.639Z,49.47
2023-03-13T19:32:46.221Z,49.16
2023-03-13T19:42:48.800Z,49.99
2023-03-13T19:52:51.193Z,51.01
2023-03-13T20:02:55.186Z,48.53
2023-03-13T20:12:57.705Z,51.23
2023-03-13T20:23:01.219Z,51.80
2023-03-13T20:33:03.936Z,52.46
2023-03-13T20:43:07.115Z,52.63
2023-03-13T20:53:10.272Z,52.16
2023-03-13T21:03:15.031Z,52.70
2023-03-13T21:13:17.399Z,52.26
2023-03-13T21:23:19.963Z,51.86
2023-03-13T21:33:22.629Z,51.78
2023-03-13T21:43:28.210Z,52.42
2023-03-13T21:53:30.592Z,51.47
2023-03-13T22:03:32.821Z,53.52
2023-03-13T22:13:35.180Z,52.64
2023-03-13T22:23:38.401Z,52.59
2023-03-13T22:33:40.588Z,54.93
2023-03-13T22:43:43.132Z,54.79
2023-03-13T22:53:45.526Z,54.23
2023-03-13T23:03:47.660Z,52.72
2023-03-13T23:13:49.764Z,52.95
2023-03-13T23:23:54.068Z,53.91
2023-03-13T23:33:56.520Z,53.88
2023-03-13T23:44:00.781Z,53.91
2023-03-13T23:54:03.254Z,54.29
